Предлагаем Вашему вниманию английскую версию страницы: AUTOTAF.ME 17042 - aviation weather forecast Hopa

AUTOTAF 17042 - авиапрогноз Hopa

Сегодня рассвет 03:11 UTC, восход солнца 03:39 UTC,
местный полдень 08:58 UTC, заход солнца 14:16 UTC,
наступление темноты 14:45 UTC.

Краткий прогноз 17042 на 9 часов

AUTOTAF.ME 17042 260800Z 2609/2618 VRB02MPS CAVOK      
  BECMG 2616/2618 14004MPS

Детальный прогноз 17042 на 24 часа

AUTOTAF.ME 17042 260800Z 2609/2709 VRB02MPS 9999 SKC TX24/2709Z TN20/2703Z    
  BECMG 2616/2618 14004MPS      
  BECMG 2707/2709 VRB02MPS

Подробный табличный прогноз

Время (UTC) miniAUTOTAF на 3 ч WX FZLVL
M AGL
ICE TURB Т
(°С)
Тd
(°С)
f(%) QNH
(гПа)
WIND/T
06 14003MPS 9999 BKN270 3600 22 12 54 1018 ...
09 VRB02MPS 9999 SKC 3600 23 12 51 1016 ...
12 VRB02MPS 9999 SKC 3600 MOD FL90/FL100 23 14 59 1015 ...
15 VRB02MPS 9999 SKC 3600 MOD FL70/FL90 22 15 64 1016 ...
18 14004MPS 9999 SKC 3600 MOD FL70/FL120 21 11 54 1017 ...
21 14005MPS 9999 SKC 3600 MOD FL70/FL120 21 9 47 1017 ...
27.10.2020
00 14006MPS 9999 SKC 3600 MOD FL70/FL120 21 8 45 1017 ...
03 14006MPS 9999 SKC 3600 MOD FL70/FL120 20 7 43 1017 ...
06 14005MPS 9999 SKC 3600 MOD FL50/FL120 22 10 45 1018 ...
09 VRB02MPS 9999 SKC 3600 MOD FL70/FL120 24 13 50 1017 ...
12 24003MPS 9999 SKC 3600 MOD FL70/FL120 21 15 69 1017 ...
15 VRB02MPS 9999 SCT320 3600 MOD FL70/FL120 20 16 74 1018 ...
18 VRB02MPS 9999 SCT300 3600 MOD FL70/FL120 21 12 57 1019 ...
21 VRB02MPS 9999 OVC280 3600 MOD FL70/FL120 21 10 51 1018 ...
28.10.2020
00 14004MPS 9999 OVC270 3600 MOD FL70/FL120 21 9 48 1018 ...
03 14005MPS 9999 FEW220 3600 MOD FL70/FL120 20 8 46 1018 ...


Широта 41.4°, долгота 41.4°, высота 33 м абс.
Средняя высота рельефа местности 163 м абс.
Прогнозы обновляются четыре раза в сутки: в 02, 08, 14, 20 ч всемирного времени.


Выбрать прогноз по другой модели Hopa
Онлайн-сводка гроз по Hopa (для РФ и ближнего зарубежья)
Карта фактических гроз в окрестностях Hopa
Динамические прогностические карты (ventusky.com)
Прогностическая карта высоты нижней границы облаков по Hopa (windy.com)
Выбрать другой город

Прогноз предназначен для личного научно-познавательного использования частными лицами
и не предназначен для принятия важных решений и выполнения реальных полётов воздушных судов

При копировании или ином использовании любых материалов данного сайта ссылка на © meteocenter.asia обязательна.

1.09/1.5